createdAt,value
2022-12-31T00:07:21.748Z,8.34479
2022-12-31T00:17:22.892Z,8.35494
2022-12-31T00:27:24.079Z,8.38634
2022-12-31T00:37:25.281Z,8.48496
2022-12-31T00:47:26.484Z,8.50114
2022-12-31T00:57:27.640Z,8.40251
2022-12-31T01:07:28.782Z,8.32735
2022-12-31T01:17:29.957Z,8.11361
2022-12-31T01:27:31.567Z,8.10124
2022-12-31T01:37:32.765Z,8.12883
2022-12-31T01:47:34.375Z,8.34289
2022-12-31T01:57:35.542Z,8.4875
2022-12-31T02:07:36.689Z,8.57503
2022-12-31T02:17:37.794Z,8.70917
2022-12-31T02:27:38.888Z,8.88391
2022-12-31T02:37:40.010Z,8.90579
2022-12-31T02:47:42.048Z,8.8985
2022-12-31T02:57:43.246Z,8.88994
2022-12-31T03:07:44.415Z,8.92197
2022-12-31T03:17:45.540Z,8.91753
2022-12-31T03:27:46.627Z,8.74437
2022-12-31T03:37:47.755Z,8.63782
2022-12-31T03:47:48.915Z,8.67873
2022-12-31T03:57:50.037Z,8.66287
2022-12-31T04:07:51.358Z,8.56488
2022-12-31T04:17:52.543Z,8.51255
2022-12-31T04:27:53.669Z,8.68031
2022-12-31T04:37:54.782Z,8.73993
2022-12-31T04:47:55.904Z,8.79067
2022-12-31T04:57:57.079Z,8.74945
2022-12-31T05:07:58.331Z,8.74025
2022-12-31T05:17:59.476Z,8.77133
2022-12-31T05:28:00.899Z,8.84681
2022-12-31T05:38:02.220Z,8.89469
2022-12-31T05:48:04.000Z,8.86932
2022-12-31T05:58:05.775Z,8.90357
2022-12-31T06:08:07.560Z,8.91531
2022-12-31T06:18:09.213Z,8.9892
2022-12-31T06:28:16.149Z,8.81287
2022-12-31T06:38:21.366Z,8.56678
2022-12-31T06:48:22.532Z,8.6616
2022-12-31T06:58:23.655Z,8.76879
2022-12-31T07:08:24.855Z,8.74596
2022-12-31T07:18:25.982Z,8.72503
2022-12-31T07:28:27.118Z,8.67397
2022-12-31T07:38:28.340Z,8.44247
2022-12-31T07:48:29.517Z,8.44183
2022-12-31T07:58:30.859Z,8.39205
2022-12-31T08:08:31.996Z,8.49828
2022-12-31T08:18:33.118Z,8.53697
2022-12-31T08:28:34.263Z,8.35145
2022-12-31T08:38:35.414Z,8.3134
2022-12-31T08:48:36.611Z,8.46847
2022-12-31T08:58:37.742Z,8.67017
2022-12-31T09:08:39.026Z,8.71044
2022-12-31T09:18:40.214Z,8.4745
2022-12-31T09:28:41.546Z,8.59659
2022-12-31T09:38:42.808Z,8.71964
2022-12-31T09:48:43.949Z,8.3708
2022-12-31T09:58:45.076Z,8.22968
2022-12-31T10:08:46.296Z,8.13708
2022-12-31T10:18:47.613Z,8.27281
2022-12-31T10:28:48.834Z,8.34479
2022-12-31T10:38:50.086Z,8.66541
2022-12-31T10:48:51.503Z,8.99649
2022-12-31T10:58:52.627Z,9.13698
2022-12-31T11:08:54.036Z,9.1706
2022-12-31T11:18:55.285Z,9.08909
2022-12-31T11:28:56.745Z,9.22324
2022-12-31T11:38:58.012Z,9.4335
2022-12-31T11:48:59.164Z,9.37483
2022-12-31T11:59:03.645Z,9.03296
2022-12-31T12:09:09.492Z,9.143
2022-12-31T12:19:11.146Z,9.04279
2022-12-31T12:29:12.347Z,9.21087
2022-12-31T12:39:13.747Z,9.43762
2022-12-31T12:49:15.006Z,9.64724
2022-12-31T12:59:16.203Z,9.72557
2022-12-31T13:09:17.333Z,9.80359
2022-12-31T13:19:18.710Z,9.88795
2022-12-31T13:29:19.847Z,9.97452
2022-12-31T13:39:21.169Z,9.95391
2022-12-31T13:49:26.147Z,9.96025
2022-12-31T13:59:27.538Z,9.91078
2022-12-31T14:09:28.716Z,9.86892
2022-12-31T14:19:34.187Z,9.85369
2022-12-31T14:29:37.719Z,9.91268
2022-12-31T14:39:38.860Z,10.01385
2022-12-31T14:49:40.047Z,10.03256
2022-12-31T14:59:41.446Z,9.94313
2022-12-31T15:09:42.535Z,9.93203
2022-12-31T15:19:44.178Z,10.03129
2022-12-31T15:29:45.370Z,10.22315
2022-12-31T15:39:46.534Z,10.30624
2022-12-31T15:49:47.901Z,10.38109
2022-12-31T15:59:49.124Z,10.4683
2022-12-31T16:09:50.372Z,10.43468
2022-12-31T16:19:51.612Z,10.42327
2022-12-31T16:29:56.004Z,10.44642
2022-12-31T16:40:01.748Z,10.48542
2022-12-31T16:50:03.550Z,10.44134
2022-12-31T17:00:05.343Z,10.49716
2022-12-31T17:10:07.350Z,10.4461
2022-12-31T17:20:09.202Z,10.41946
2022-12-31T17:30:10.830Z,10.40963
2022-12-31T17:40:49.126Z,10.32464
2022-12-31T17:50:51.908Z,10.30307
2022-12-31T18:00:53.258Z,10.33257
2022-12-31T18:10:54.644Z,10.27104
2022-12-31T18:20:55.808Z,10.24757
2022-12-31T18:30:56.967Z,10.21174
2022-12-31T18:40:58.177Z,10.18542
2022-12-31T18:51:00.947Z,10.10708
2022-12-31T19:01:02.765Z,10.05539
2022-12-31T19:11:15.736Z,10.02653
2022-12-31T19:21:16.949Z,10.04715
2022-12-31T19:31:18.515Z,10.07347
2022-12-31T19:41:19.757Z,10.18827
2022-12-31T19:51:21.164Z,10.20318
2022-12-31T20:01:22.506Z,10.1851
2022-12-31T20:11:23.833Z,10.14229
2022-12-31T20:21:24.994Z,10.08171
2022-12-31T20:31:26.180Z,9.97611
2022-12-31T20:41:27.392Z,10.07886
2022-12-31T20:51:28.531Z,10.03636
2022-12-31T21:01:48.255Z,10.00433
2022-12-31T21:12:20.413Z,10.02304
2022-12-31T21:22:21.673Z,10.03287
2022-12-31T21:32:22.856Z,10.20761
2022-12-31T21:42:24.238Z,10.28246
2022-12-31T21:52:25.553Z,10.25867
2022-12-31T22:02:27.002Z,10.19208
2022-12-31T22:12:28.264Z,10.06269
2022-12-31T22:22:29.540Z,10.01892
2022-12-31T22:32:30.900Z,9.88541
2022-12-31T22:42:32.087Z,9.75602
2022-12-31T22:52:33.199Z,9.61394
2022-12-31T23:02:39.888Z,9.47536
2022-12-31T23:12:42.773Z,9.33233
2022-12-31T23:22:44.148Z,9.28349
2022-12-31T23:32:45.534Z,9.15537
2022-12-31T23:42:46.720Z,9.11319
2022-12-31T23:52:48.159Z,9.03455
